Time;durP1;ratioP1;P1;durP2;ratioP2;P2;SDS_P1;SDS_P2;PMS_P1;PMS_P2;Temp;Humidity;BMP_temperature;BMP_pressure;BME280_temperature;BME280_humidity;BME280_pressure;Samples;Min_cycle;Max_cycle;Signal;HPM_P1;HPM_P2
2022/07/17 00:00:36;;;;;;;;;;;26.00;40.70;;;;;;4998836;28;19917;-65
2022/07/17 00:03:01;;;;;;;;;;;26.00;40.70;;;;;;4999894;28;19919;-67
2022/07/17 00:05:27;;;;;;;;;;;26.00;40.70;;;;;;5000542;28;20204;-65
2022/07/17 00:07:52;;;;;;;;;;;26.00;40.70;;;;;;5000279;28;19917;-64
2022/07/17 00:10:18;;;;;;;;;;;26.00;40.70;;;;;;5000775;28;20016;-65
2022/07/17 00:12:44;;;;;;;;;;;26.00;40.70;;;;;;5001294;28;19996;-65
2022/07/17 00:15:09;;;;;;;;;;;26.00;40.70;;;;;;4999959;28;19972;-64
2022/07/17 00:17:35;;;;;;;;;;;26.00;40.70;;;;;;4999316;28;19946;-64
2022/07/17 00:20:00;;;;;;;;;;;26.00;40.80;;;;;;5000019;28;19921;-68
2022/07/17 00:22:27;;;;;;;;;;;26.00;40.80;;;;;;4998515;28;19916;-65
2022/07/17 00:24:53;;;;;;;;;;;26.00;40.80;;;;;;5000316;28;20058;-63
2022/07/17 00:27:18;;;;;;;;;;;25.90;40.70;;;;;;4999804;28;20357;-71
2022/07/17 00:29:44;;;;;;;;;;;26.00;40.80;;;;;;5000161;28;20258;-64
2022/07/17 00:32:09;;;;;;;;;;;26.00;40.80;;;;;;4999302;28;19918;-68
2022/07/17 00:34:35;;;;;;;;;;;25.90;40.80;;;;;;4999040;28;19924;-68
2022/07/17 00:37:00;;;;;;;;;;;25.90;40.80;;;;;;4999395;28;19936;-68
2022/07/17 00:39:26;;;;;;;;;;;26.00;40.80;;;;;;5000102;28;19999;-64
2022/07/17 00:41:51;;;;;;;;;;;25.90;40.80;;;;;;4998889;28;20592;-65
2022/07/17 00:44:17;;;;;;;;;;;25.90;40.80;;;;;;4999131;28;19916;-64
2022/07/17 00:46:43;;;;;;;;;;;26.00;40.90;;;;;;5002273;28;19948;-61
2022/07/17 00:49:09;;;;;;;;;;;25.90;40.80;;;;;;4998352;28;19917;-64
2022/07/17 00:51:35;;;;;;;;;;;25.90;40.80;;;;;;4999282;28;20019;-63
2022/07/17 00:54:01;;;;;;;;;;;25.90;40.80;;;;;;4997869;28;20762;-66
2022/07/17 00:56:27;;;;;;;;;;;25.90;40.80;;;;;;5001062;28;19916;-65
2022/07/17 00:58:53;;;;;;;;;;;25.90;40.80;;;;;;5001136;28;19924;-69
2022/07/17 01:01:19;;;;;;;;;;;25.90;40.90;;;;;;4999563;28;19936;-65
2022/07/17 01:03:45;;;;;;;;;;;25.90;40.90;;;;;;5000064;28;19913;-69
2022/07/17 01:06:10;;;;;;;;;;;25.90;40.90;;;;;;4999100;28;19947;-64
2022/07/17 01:08:37;;;;;;;;;;;25.90;40.90;;;;;;4998724;28;20378;-63
2022/07/17 01:11:03;;;;;;;;;;;25.90;40.90;;;;;;4997853;28;19967;-65
2022/07/17 01:13:31;;;;;;;;;;;25.90;40.90;;;;;;4999644;28;20537;-65
2022/07/17 01:15:56;;;;;;;;;;;25.90;40.90;;;;;;4999398;28;20590;-70
2022/07/17 01:18:22;;;;;;;;;;;25.90;40.90;;;;;;5000015;28;19917;-64
2022/07/17 01:20:48;;;;;;;;;;;25.90;40.90;;;;;;5000499;28;20501;-69
2022/07/17 01:23:14;;;;;;;;;;;25.90;41.00;;;;;;4996639;28;19913;-64
2022/07/17 01:25:40;;;;;;;;;;;25.90;40.90;;;;;;4998556;28;19917;-64
2022/07/17 01:28:06;;;;;;;;;;;25.80;40.90;;;;;;5000343;28;19924;-64
2022/07/17 01:30:31;;;;;;;;;;;25.80;40.90;;;;;;4998812;28;19917;-66
2022/07/17 01:32:57;;;;;;;;;;;25.80;40.90;;;;;;4998155;28;20376;-63
2022/07/17 01:35:22;;;;;;;;;;;25.90;41.00;;;;;;4998486;28;19913;-65
2022/07/17 01:37:48;;;;;;;;;;;25.80;40.90;;;;;;4998161;28;20004;-64
2022/07/17 01:40:14;;;;;;;;;;;25.80;40.90;;;;;;5000131;28;20559;-68
2022/07/17 01:42:45;;;;;;;;;;;25.80;41.00;;;;;;4996609;28;19967;-61
2022/07/17 01:45:11;;;;;;;;;;;25.80;41.50;;;;;;4997972;28;19921;-66
2022/07/17 01:47:37;;;;;;;;;;;25.80;41.00;;;;;;5000746;28;20415;-62
2022/07/17 01:50:03;;;;;;;;;;;25.80;41.00;;;;;;4997281;28;19910;-69
2022/07/17 01:52:29;;;;;;;;;;;25.80;41.00;;;;;;4996264;28;20377;-65
2022/07/17 01:54:55;;;;;;;;;;;25.80;41.00;;;;;;4996990;28;19960;-66
2022/07/17 01:57:20;;;;;;;;;;;25.80;41.00;;;;;;4998452;28;19916;-65
2022/07/17 01:59:46;;;;;;;;;;;25.80;41.00;;;;;;4998387;28;19920;-64
2022/07/17 02:02:12;;;;;;;;;;;25.80;41.00;;;;;;4997743;28;20501;-65
2022/07/17 02:04:41;;;;;;;;;;;25.80;41.00;;;;;;4999164;28;19975;-62
2022/07/17 02:07:07;;;;;;;;;;;25.80;41.10;;;;;;4997277;28;19917;-66
2022/07/17 02:09:33;;;;;;;;;;;25.80;41.00;;;;;;4998251;28;19909;-65
2022/07/17 02:11:58;;;;;;;;;;;25.80;41.00;;;;;;4998207;28;19967;-68
2022/07/17 02:14:24;;;;;;;;;;;25.70;41.00;;;;;;5008461;28;19910;-66
2022/07/17 02:16:50;;;;;;;;;;;25.80;41.10;;;;;;4998489;28;19914;-64
2022/07/17 02:19:15;;;;;;;;;;;25.80;41.10;;;;;;4997254;28;20691;-70
2022/07/17 02:21:41;;;;;;;;;;;25.80;41.10;;;;;;4997434;28;20369;-65
2022/07/17 02:24:07;;;;;;;;;;;25.70;41.10;;;;;;4995363;28;19917;-65
2022/07/17 02:26:32;;;;;;;;;;;25.70;41.00;;;;;;4997192;28;19921;-70
2022/07/17 02:28:58;;;;;;;;;;;25.70;41.00;;;;;;4997720;28;19912;-62
2022/07/17 02:31:23;;;;;;;;;;;25.70;41.00;;;;;;4998200;28;20273;-70
2022/07/17 02:33:49;;;;;;;;;;;25.70;41.10;;;;;;4998227;28;19916;-64
2022/07/17 02:36:14;;;;;;;;;;;25.70;41.10;;;;;;4998346;28;19910;-64
2022/07/17 02:38:40;;;;;;;;;;;25.70;41.10;;;;;;4998450;28;19914;-64
2022/07/17 02:41:05;;;;;;;;;;;25.70;41.10;;;;;;4996142;28;20341;-65
2022/07/17 02:43:31;;;;;;;;;;;25.70;41.10;;;;;;4996832;28;19909;-64
2022/07/17 02:45:57;;;;;;;;;;;25.70;41.10;;;;;;4999627;28;19968;-64
2022/07/17 02:48:22;;;;;;;;;;;25.70;41.10;;;;;;4997136;28;19905;-65
2022/07/17 02:50:48;;;;;;;;;;;25.70;41.10;;;;;;4998734;28;19924;-62
2022/07/17 02:53:13;;;;;;;;;;;25.70;41.10;;;;;;4995083;28;19959;-64
2022/07/17 02:55:39;;;;;;;;;;;25.70;41.10;;;;;;4997992;28;19913;-62
2022/07/17 02:58:04;;;;;;;;;;;25.70;41.10;;;;;;4996659;28;19917;-64
2022/07/17 03:00:30;;;;;;;;;;;25.70;41.10;;;;;;4999690;28;19987;-65
2022/07/17 03:02:55;;;;;;;;;;;25.70;41.10;;;;;;4997635;28;19921;-64
2022/07/17 03:05:21;;;;;;;;;;;25.70;41.10;;;;;;4997603;28;19984;-69
2022/07/17 03:07:46;;;;;;;;;;;25.70;41.10;;;;;;4996469;28;19909;-64
2022/07/17 03:10:12;;;;;;;;;;;25.70;41.10;;;;;;4997141;28;19959;-63
2022/07/17 03:12:38;;;;;;;;;;;25.70;41.10;;;;;;4998450;28;20075;-69
2022/07/17 03:15:04;;;;;;;;;;;25.70;41.10;;;;;;4999455;28;19924;-66
2022/07/17 03:17:30;;;;;;;;;;;25.70;41.10;;;;;;5001644;28;19917;-67
2022/07/17 03:19:55;;;;;;;;;;;25.70;41.20;;;;;;5002532;28;19976;-65
2022/07/17 03:22:21;;;;;;;;;;;25.70;41.10;;;;;;5000187;28;21034;-65
2022/07/17 03:24:46;;;;;;;;;;;25.70;41.10;;;;;;4999946;28;20238;-64
2022/07/17 03:27:12;;;;;;;;;;;25.70;41.20;;;;;;5000270;28;19924;-64
2022/07/17 03:29:37;;;;;;;;;;;25.70;41.10;;;;;;5002160;28;20243;-62
2022/07/17 03:32:03;;;;;;;;;;;25.70;41.20;;;;;;5000982;28;20261;-69
2022/07/17 03:34:28;;;;;;;;;;;25.70;41.20;;;;;;5015703;28;19913;-69
2022/07/17 03:36:54;;;;;;;;;;;25.60;41.10;;;;;;4999684;28;19944;-68
2022/07/17 03:39:19;;;;;;;;;;;25.70;41.20;;;;;;5000543;28;19917;-71
2022/07/17 03:41:45;;;;;;;;;;;25.70;41.20;;;;;;5014696;28;19932;-64
2022/07/17 03:44:10;;;;;;;;;;;25.60;41.10;;;;;;5000959;28;20198;-63
2022/07/17 03:46:36;;;;;;;;;;;25.60;41.10;;;;;;5000461;28;19913;-66
2022/07/17 03:49:01;;;;;;;;;;;25.60;41.10;;;;;;5000808;28;19993;-68
2022/07/17 03:51:27;;;;;;;;;;;25.60;41.10;;;;;;4997144;28;20648;-65
2022/07/17 03:53:52;;;;;;;;;;;25.60;41.10;;;;;;4999718;28;19988;-63
2022/07/17 03:56:18;;;;;;;;;;;25.60;41.10;;;;;;4998234;28;19993;-65
2022/07/17 03:58:43;;;;;;;;;;;25.60;41.10;;;;;;5002788;28;20361;-64
2022/07/17 04:01:09;;;;;;;;;;;25.70;41.20;;;;;;4999541;28;20043;-69
2022/07/17 04:03:34;;;;;;;;;;;25.60;41.10;;;;;;5014847;28;19913;-65
2022/07/17 04:06:00;;;;;;;;;;;25.60;41.10;;;;;;5000604;28;20391;-64
2022/07/17 04:08:25;;;;;;;;;;;25.60;40.00;;;;;;5000078;28;20004;-68
2022/07/17 04:10:51;;;;;;;;;;;25.60;39.30;;;;;;4998728;28;19977;-64
2022/07/17 04:13:16;;;;;;;;;;;25.50;37.90;;;;;;5001348;28;20007;-65
2022/07/17 04:15:59;;;;;;;;;;;25.40;37.10;;;;;;4999411;28;19909;-64
2022/07/17 04:18:29;;;;;;;;;;;25.40;36.80;;;;;;4998792;28;19909;-63
2022/07/17 04:20:56;;;;;;;;;;;25.30;36.50;;;;;;5000749;28;20013;-64
2022/07/17 04:23:21;;;;;;;;;;;25.30;36.20;;;;;;4996779;28;20366;-67
2022/07/17 04:25:47;;;;;;;;;;;25.20;36.00;;;;;;4998310;28;19917;-67
2022/07/17 04:28:12;;;;;;;;;;;25.10;35.90;;;;;;4999608;28;19960;-64
2022/07/17 04:30:38;;;;;;;;;;;25.10;36.20;;;;;;4999283;28;20412;-68
2022/07/17 04:33:04;;;;;;;;;;;25.10;36.20;;;;;;5000476;28;19913;-67
2022/07/17 04:35:30;;;;;;;;;;;25.10;36.20;;;;;;4999557;28;20012;-67
2022/07/17 04:37:55;;;;;;;;;;;25.10;36.10;;;;;;4999851;28;19909;-64
2022/07/17 04:40:21;;;;;;;;;;;25.00;36.40;;;;;;4999940;28;19937;-64
2022/07/17 04:42:46;;;;;;;;;;;25.00;37.00;;;;;;4999391;28;19916;-66
2022/07/17 04:45:13;;;;;;;;;;;25.00;37.20;;;;;;4998669;28;19917;-68
2022/07/17 04:47:39;;;;;;;;;;;24.90;37.90;;;;;;4999898;28;19967;-65
2022/07/17 04:50:06;;;;;;;;;;;24.90;38.00;;;;;;4999526;28;19916;-68
2022/07/17 04:52:31;;;;;;;;;;;24.80;38.10;;;;;;4997935;28;20338;-66
2022/07/17 04:54:57;;;;;;;;;;;24.80;38.30;;;;;;4997529;28;19912;-65
2022/07/17 04:57:22;;;;;;;;;;;24.80;38.30;;;;;;5000531;28;20346;-66
2022/07/17 04:59:48;;;;;;;;;;;24.80;38.40;;;;;;4999823;28;19920;-68
2022/07/17 05:02:13;;;;;;;;;;;24.80;38.30;;;;;;4998698;28;19993;-62
2022/07/17 05:04:39;;;;;;;;;;;24.80;38.50;;;;;;4998920;28;19913;-64
2022/07/17 05:07:04;;;;;;;;;;;24.70;38.50;;;;;;4998758;28;20397;-65
2022/07/17 05:09:30;;;;;;;;;;;24.70;38.60;;;;;;4999945;28;20004;-66
2022/07/17 05:11:55;;;;;;;;;;;24.70;38.70;;;;;;4998483;28;19929;-69
2022/07/17 05:14:21;;;;;;;;;;;24.60;38.60;;;;;;4999215;28;19921;-65
2022/07/17 05:16:46;;;;;;;;;;;24.60;38.80;;;;;;5000331;28;19913;-68
2022/07/17 05:19:12;;;;;;;;;;;24.60;38.80;;;;;;4999138;28;19935;-63
2022/07/17 05:21:38;;;;;;;;;;;24.50;39.00;;;;;;4998610;28;19949;-65
2022/07/17 05:24:04;;;;;;;;;;;24.50;39.20;;;;;;4997212;28;19975;-64
2022/07/17 05:26:29;;;;;;;;;;;24.50;39.30;;;;;;4997984;28;20352;-66
2022/07/17 05:28:55;;;;;;;;;;;24.40;39.40;;;;;;4998390;28;19974;-66
2022/07/17 05:31:20;;;;;;;;;;;24.40;39.10;;;;;;4998713;28;20576;-68
2022/07/17 05:33:46;;;;;;;;;;;24.40;39.20;;;;;;4998196;28;19944;-66
2022/07/17 05:36:11;;;;;;;;;;;24.40;39.30;;;;;;4997308;28;19913;-62
2022/07/17 05:38:37;;;;;;;;;;;24.40;39.40;;;;;;4999065;28;19921;-65
2022/07/17 05:41:03;;;;;;;;;;;24.30;39.40;;;;;;4997077;28;19920;-62
2022/07/17 05:43:28;;;;;;;;;;;24.30;39.50;;;;;;4997895;28;20921;-61
2022/07/17 05:45:54;;;;;;;;;;;24.30;39.50;;;;;;4998787;28;19921;-65
2022/07/17 05:48:20;;;;;;;;;;;24.30;39.60;;;;;;4997366;28;19963;-64
2022/07/17 05:50:46;;;;;;;;;;;24.30;39.60;;;;;;4997566;28;19917;-68
2022/07/17 05:53:11;;;;;;;;;;;24.30;39.50;;;;;;4996366;28;19917;-69
2022/07/17 05:55:37;;;;;;;;;;;24.30;39.60;;;;;;4997663;28;19909;-64
2022/07/17 05:58:02;;;;;;;;;;;24.30;39.50;;;;;;4999339;28;20269;-65
2022/07/17 06:00:29;;;;;;;;;;;24.30;39.60;;;;;;4997066;28;19913;-67
2022/07/17 06:02:54;;;;;;;;;;;24.30;39.60;;;;;;4996757;28;19914;-65
2022/07/17 06:05:20;;;;;;;;;;;24.30;39.50;;;;;;4998011;28;19917;-66
2022/07/17 06:07:45;;;;;;;;;;;24.30;39.50;;;;;;4996609;28;19941;-65
2022/07/17 06:10:11;;;;;;;;;;;24.30;39.30;;;;;;4996748;28;19971;-68
2022/07/17 06:12:36;;;;;;;;;;;24.30;39.30;;;;;;4997296;28;20317;-68
2022/07/17 06:15:02;;;;;;;;;;;24.30;39.10;;;;;;4999132;28;21603;-68
2022/07/17 06:17:28;;;;;;;;;;;24.30;39.00;;;;;;5014163;28;19949;-66
2022/07/17 06:19:53;;;;;;;;;;;24.30;38.90;;;;;;4998472;28;19921;-66
2022/07/17 06:22:19;;;;;;;;;;;24.20;38.70;;;;;;4996330;28;19913;-66
2022/07/17 06:24:45;;;;;;;;;;;24.20;38.60;;;;;;4996413;28;19952;-65
2022/07/17 06:27:12;;;;;;;;;;;24.20;38.60;;;;;;4998669;28;19961;-62
2022/07/17 06:29:37;;;;;;;;;;;24.20;38.60;;;;;;4999382;28;19990;-65
2022/07/17 06:32:03;;;;;;;;;;;24.20;38.60;;;;;;4998882;28;19924;-61
2022/07/17 06:34:28;;;;;;;;;;;24.20;38.60;;;;;;4996359;28;19987;-65
2022/07/17 06:36:54;;;;;;;;;;;24.30;38.60;;;;;;4998680;28;19913;-65
2022/07/17 06:39:19;;;;;;;;;;;24.20;38.50;;;;;;4997927;28;19913;-66
2022/07/17 06:41:45;;;;;;;;;;;24.20;38.60;;;;;;4997765;28;19920;-65
2022/07/17 06:44:10;;;;;;;;;;;24.20;38.50;;;;;;4999005;28;20008;-64
2022/07/17 06:46:36;;;;;;;;;;;24.20;38.50;;;;;;4998885;28;20349;-68
2022/07/17 06:49:01;;;;;;;;;;;24.20;38.60;;;;;;4997872;28;20395;-66
2022/07/17 06:51:27;;;;;;;;;;;24.20;38.60;;;;;;4995186;28;19913;-68
2022/07/17 06:53:52;;;;;;;;;;;24.20;38.70;;;;;;4997392;28;20027;-64
2022/07/17 06:56:18;;;;;;;;;;;24.20;38.80;;;;;;5007665;28;19909;-63
2022/07/17 06:58:43;;;;;;;;;;;24.20;38.80;;;;;;5000355;28;19988;-63
2022/07/17 07:01:09;;;;;;;;;;;24.20;38.90;;;;;;4996837;28;19936;-66
2022/07/17 07:03:34;;;;;;;;;;;24.30;39.00;;;;;;4997138;28;20010;-64
2022/07/17 07:06:00;;;;;;;;;;;24.20;39.00;;;;;;4998590;28;20004;-64
2022/07/17 07:08:26;;;;;;;;;;;24.20;39.10;;;;;;4996200;28;19924;-64
2022/07/17 07:10:51;;;;;;;;;;;24.20;39.20;;;;;;4995851;28;19996;-68
2022/07/17 07:13:17;;;;;;;;;;;24.30;39.30;;;;;;4998120;28;19917;-64
2022/07/17 07:15:42;;;;;;;;;;;24.20;39.20;;;;;;4997016;28;19952;-64
2022/07/17 07:18:08;;;;;;;;;;;24.30;39.40;;;;;;4999429;28;19913;-64
2022/07/17 07:20:34;;;;;;;;;;;24.30;39.40;;;;;;4996975;28;19917;-63
2022/07/17 07:22:59;;;;;;;;;;;24.30;39.50;;;;;;4996427;28;20537;-63
2022/07/17 07:25:25;;;;;;;;;;;24.30;39.50;;;;;;4997455;28;20101;-61
2022/07/17 07:27:50;;;;;;;;;;;24.30;39.60;;;;;;4998060;28;19917;-62
2022/07/17 07:30:16;;;;;;;;;;;24.30;39.50;;;;;;4997501;28;19909;-64
2022/07/17 07:32:41;;;;;;;;;;;24.30;39.60;;;;;;4997975;28;19936;-66
2022/07/17 07:35:08;;;;;;;;;;;24.30;39.60;;;;;;4996536;28;19987;-62
2022/07/17 07:37:33;;;;;;;;;;;24.30;39.60;;;;;;4996008;28;19936;-64
2022/07/17 07:39:59;;;;;;;;;;;24.30;39.70;;;;;;4998478;28;20629;-63
2022/07/17 07:42:25;;;;;;;;;;;24.30;39.70;;;;;;4996442;28;19909;-66
2022/07/17 07:44:50;;;;;;;;;;;24.30;39.70;;;;;;4998738;28;19913;-65
2022/07/17 07:47:16;;;;;;;;;;;24.30;39.70;;;;;;4998255;28;19936;-65
2022/07/17 07:49:41;;;;;;;;;;;24.30;39.70;;;;;;4998286;28;20095;-63
2022/07/17 07:52:07;;;;;;;;;;;24.30;39.80;;;;;;4995071;28;19917;-65
2022/07/17 07:54:32;;;;;;;;;;;24.30;39.80;;;;;;4997091;28;19996;-64
2022/07/17 07:56:58;;;;;;;;;;;24.30;39.90;;;;;;4997501;28;19994;-65
2022/07/17 07:59:23;;;;;;;;;;;24.30;39.90;;;;;;5000576;28;19924;-61
2022/07/17 08:01:49;;;;;;;;;;;24.30;39.90;;;;;;4999437;28;20005;-64
2022/07/17 08:04:15;;;;;;;;;;;24.30;39.90;;;;;;5000769;28;20417;-65
2022/07/17 08:06:41;;;;;;;;;;;24.30;40.00;;;;;;5001829;28;20366;-65
2022/07/17 08:09:07;;;;;;;;;;;24.30;40.00;;;;;;5001620;28;19920;-68
2022/07/17 08:11:32;;;;;;;;;;;24.30;40.00;;;;;;5000105;28;19920;-65
2022/07/17 08:13:59;;;;;;;;;;;24.30;40.00;;;;;;4999991;28;19995;-63
2022/07/17 08:16:24;;;;;;;;;;;24.30;40.00;;;;;;5000564;28;19929;-64
2022/07/17 08:18:50;;;;;;;;;;;24.30;40.10;;;;;;5001610;28;19913;-64
2022/07/17 08:21:16;;;;;;;;;;;24.40;40.10;;;;;;4999790;28;19917;-63
2022/07/17 08:23:41;;;;;;;;;;;24.40;40.10;;;;;;5001665;28;19914;-62
2022/07/17 08:26:07;;;;;;;;;;;24.40;40.10;;;;;;4999721;28;19921;-65
2022/07/17 08:28:32;;;;;;;;;;;24.40;40.10;;;;;;5002215;28;20003;-65
2022/07/17 08:30:58;;;;;;;;;;;24.40;40.20;;;;;;5001251;28;19933;-66
2022/07/17 08:33:23;;;;;;;;;;;24.40;40.20;;;;;;5000714;28;19953;-64
2022/07/17 08:35:49;;;;;;;;;;;24.40;40.20;;;;;;5002348;28;19918;-66
2022/07/17 08:38:14;;;;;;;;;;;24.40;40.20;;;;;;5001607;28;19956;-65
2022/07/17 08:40:43;;;;;;;;;;;24.40;40.30;;;;;;4998738;28;19976;-65
2022/07/17 08:43:09;;;;;;;;;;;24.40;40.30;;;;;;4999978;28;19992;-65
2022/07/17 08:45:35;;;;;;;;;;;24.40;40.30;;;;;;5001032;28;20016;-65
2022/07/17 08:48:00;;;;;;;;;;;24.40;40.30;;;;;;5001640;28;19913;-67
2022/07/17 08:50:27;;;;;;;;;;;24.40;40.30;;;;;;5001097;28;19909;-63
2022/07/17 08:52:53;;;;;;;;;;;24.40;40.30;;;;;;5001531;28;19918;-65
2022/07/17 08:55:18;;;;;;;;;;;24.40;40.30;;;;;;5000135;28;19916;-64
2022/07/17 08:57:45;;;;;;;;;;;24.40;40.40;;;;;;5002265;28;20381;-63
2022/07/17 09:00:12;;;;;;;;;;;24.40;40.40;;;;;;5001288;28;21103;-65
2022/07/17 09:02:38;;;;;;;;;;;24.50;40.50;;;;;;5000811;28;19932;-62
2022/07/17 09:05:03;;;;;;;;;;;24.40;40.40;;;;;;5000062;28;19914;-64
2022/07/17 09:07:30;;;;;;;;;;;24.50;40.50;;;;;;4999501;28;20332;-63
2022/07/17 09:09:56;;;;;;;;;;;24.50;40.50;;;;;;4997872;28;20000;-64
2022/07/17 09:12:28;;;;;;;;;;;24.40;40.50;;;;;;4997020;28;20004;-62
2022/07/17 09:14:54;;;;;;;;;;;24.50;40.50;;;;;;5014597;28;19913;-65
2022/07/17 09:17:20;;;;;;;;;;;24.50;40.50;;;;;;5000715;28;20540;-63
2022/07/17 09:19:46;;;;;;;;;;;24.50;40.50;;;;;;5000558;28;20337;-65
2022/07/17 09:22:13;;;;;;;;;;;24.50;40.50;;;;;;4997405;28;19913;-65
2022/07/17 09:24:43;;;;;;;;;;;24.50;40.50;;;;;;4999259;28;20042;-65
2022/07/17 09:27:09;;;;;;;;;;;24.50;40.50;;;;;;4998944;28;19918;-65
2022/07/17 09:29:34;;;;;;;;;;;24.50;40.50;;;;;;5001593;28;19909;-65
2022/07/17 09:32:00;;;;;;;;;;;24.50;40.50;;;;;;4998569;28;20465;-65
2022/07/17 09:34:26;;;;;;;;;;;24.50;40.50;;;;;;4997941;28;19975;-66
2022/07/17 09:37:01;;;;;;;;;;;24.50;40.50;;;;;;5000695;28;20003;-64
2022/07/17 09:39:36;;;;;;;;;;;24.50;40.60;;;;;;5001070;28;20289;-64
2022/07/17 09:42:02;;;;;;;;;;;24.50;40.60;;;;;;4998424;28;20140;-67
2022/07/17 09:44:27;;;;;;;;;;;24.60;40.70;;;;;;4999349;28;20737;-64
2022/07/17 09:46:53;;;;;;;;;;;24.50;40.70;;;;;;4999968;28;20382;-66
2022/07/17 09:49:19;;;;;;;;;;;24.60;41.30;;;;;;5001190;28;19909;-63
2022/07/17 09:51:45;;;;;;;;;;;24.50;40.70;;;;;;4999474;28;19909;-63
2022/07/17 09:54:11;;;;;;;;;;;24.50;40.70;;;;;;5000749;28;20314;-67
2022/07/17 09:56:37;;;;;;;;;;;24.50;40.70;;;;;;4999758;28;19951;-64
2022/07/17 09:59:06;;;;;;;;;;;24.50;40.70;;;;;;5000607;28;19905;-65
2022/07/17 10:01:33;;;;;;;;;;;24.50;40.70;;;;;;4998530;28;19921;-65
2022/07/17 10:03:58;;;;;;;;;;;24.50;40.70;;;;;;4999172;28;19996;-63
2022/07/17 10:06:25;;;;;;;;;;;24.50;40.70;;;;;;4999874;28;19921;-67
2022/07/17 10:08:51;;;;;;;;;;;24.50;40.70;;;;;;4999397;28;19952;-65
2022/07/17 10:11:19;;;;;;;;;;;24.60;40.80;;;;;;4995600;28;19956;-65
2022/07/17 10:13:46;;;;;;;;;;;24.50;40.80;;;;;;5001171;28;19951;-63
2022/07/17 10:16:13;;;;;;;;;;;24.50;40.80;;;;;;4998764;28;20318;-65
2022/07/17 10:18:40;;;;;;;;;;;24.60;40.80;;;;;;4999391;28;19909;-64
2022/07/17 10:21:15;;;;;;;;;;;24.60;40.80;;;;;;4997216;28;20427;-64
2022/07/17 10:23:42;;;;;;;;;;;24.50;40.80;;;;;;4998290;28;19964;-62
2022/07/17 10:26:08;;;;;;;;;;;24.50;40.80;;;;;;4997432;28;19923;-61
2022/07/17 10:28:39;;;;;;;;;;;24.60;40.90;;;;;;4999950;28;20008;-65
2022/07/17 10:31:05;;;;;;;;;;;24.60;40.90;;;;;;4998657;28;19928;-62
2022/07/17 10:33:30;;;;;;;;;;;24.50;40.90;;;;;;4998254;28;19913;-67
2022/07/17 10:35:59;;;;;;;;;;;24.60;40.90;;;;;;4998926;28;19920;-64
2022/07/17 10:38:26;;;;;;;;;;;24.60;40.90;;;;;;4998278;28;20370;-67
2022/07/17 10:40:58;;;;;;;;;;;24.60;40.90;;;;;;4997779;28;19910;-66
2022/07/17 10:43:24;;;;;;;;;;;24.60;40.90;;;;;;5013298;28;19909;-65
2022/07/17 10:45:49;;;;;;;;;;;24.60;41.00;;;;;;4999169;28;19979;-67
2022/07/17 10:48:16;;;;;;;;;;;24.60;40.90;;;;;;5009787;28;20401;-66
2022/07/17 10:50:41;;;;;;;;;;;24.60;41.00;;;;;;4998488;28;19914;-63
2022/07/17 10:53:09;;;;;;;;;;;24.60;41.00;;;;;;4997818;28;19935;-62
2022/07/17 10:55:36;;;;;;;;;;;24.60;41.00;;;;;;4997025;28;20431;-64
2022/07/17 10:58:02;;;;;;;;;;;24.60;41.00;;;;;;4999699;28;19964;-65
2022/07/17 11:00:28;;;;;;;;;;;24.70;41.10;;;;;;4998943;28;19914;-67
2022/07/17 11:02:53;;;;;;;;;;;24.60;41.00;;;;;;4998730;28;20269;-64
2022/07/17 11:05:19;;;;;;;;;;;24.60;41.00;;;;;;4999841;28;20016;-64
2022/07/17 11:07:52;;;;;;;;;;;24.60;41.20;;;;;;4997610;28;19924;-64
2022/07/17 11:10:18;;;;;;;;;;;24.60;41.00;;;;;;4997473;28;20004;-67
2022/07/17 11:12:43;;;;;;;;;;;24.60;41.00;;;;;;4996834;28;20680;-67
2022/07/17 11:15:09;;;;;;;;;;;24.60;41.00;;;;;;4996902;28;20000;-67
2022/07/17 11:17:34;;;;;;;;;;;24.60;41.10;;;;;;4995255;28;19916;-64
2022/07/17 11:20:01;;;;;;;;;;;24.70;41.10;;;;;;4999090;28;20025;-65
2022/07/17 11:22:27;;;;;;;;;;;24.70;41.10;;;;;;4997818;28;19920;-65
2022/07/17 11:24:52;;;;;;;;;;;24.70;41.10;;;;;;4996989;28;19922;-63
2022/07/17 11:27:20;;;;;;;;;;;24.70;41.10;;;;;;4994885;28;19932;-67
2022/07/17 11:29:46;;;;;;;;;;;24.70;41.10;;;;;;4995416;28;19917;-64
2022/07/17 11:32:12;;;;;;;;;;;24.70;41.10;;;;;;4997120;28;19922;-67
2022/07/17 11:34:38;;;;;;;;;;;24.70;41.10;;;;;;5001113;28;19952;-63
2022/07/17 11:37:04;;;;;;;;;;;24.70;41.10;;;;;;4999994;28;20046;-63
2022/07/17 11:39:37;;;;;;;;;;;24.70;41.10;;;;;;5003506;28;19914;-65
2022/07/17 11:42:03;;;;;;;;;;;24.70;41.10;;;;;;5001466;28;20005;-62
2022/07/17 11:44:28;;;;;;;;;;;24.70;41.10;;;;;;5002055;28;20415;-65
2022/07/17 11:46:54;;;;;;;;;;;24.80;41.10;;;;;;5003281;28;20153;-63
2022/07/17 11:49:29;;;;;;;;;;;24.80;41.10;;;;;;5002660;28;20619;-67
2022/07/17 11:51:58;;;;;;;;;;;24.80;41.10;;;;;;5002593;28;19953;-67
2022/07/17 11:54:25;;;;;;;;;;;24.80;41.10;;;;;;5000632;28;19913;-63
2022/07/17 11:56:55;;;;;;;;;;;24.80;41.10;;;;;;5000340;28;20015;-63
2022/07/17 11:59:28;;;;;;;;;;;24.80;41.10;;;;;;5002004;28;19913;-67
2022/07/17 12:01:53;;;;;;;;;;;24.80;41.10;;;;;;4999903;28;19965;-61
2022/07/17 12:04:19;;;;;;;;;;;24.80;41.10;;;;;;4999757;28;19983;-63
2022/07/17 12:06:45;;;;;;;;;;;24.80;41.10;;;;;;4997899;28;19913;-65
2022/07/17 12:09:11;;;;;;;;;;;24.80;41.20;;;;;;4999127;28;19912;-63
2022/07/17 12:11:49;;;;;;;;;;;24.80;41.20;;;;;;4997451;28;19916;-67
2022/07/17 12:14:14;;;;;;;;;;;24.80;41.20;;;;;;5000664;28;19919;-66
2022/07/17 12:16:40;;;;;;;;;;;24.80;41.20;;;;;;5000898;28;20333;-64
2022/07/17 12:19:09;;;;;;;;;;;24.80;41.20;;;;;;5000753;28;20009;-65
2022/07/17 12:21:54;;;;;;;;;;;24.80;41.80;;;;;;4999385;28;19917;-66
2022/07/17 12:24:21;;;;;;;;;;;24.80;41.30;;;;;;4999709;28;19920;-68
2022/07/17 12:26:47;;;;;;;;;;;24.80;41.80;;;;;;4996321;28;20362;-64
2022/07/17 12:29:13;;;;;;;;;;;24.80;41.30;;;;;;5000812;28;19913;-64
2022/07/17 12:31:38;;;;;;;;;;;24.80;41.40;;;;;;5000263;28;19931;-63
2022/07/17 12:34:04;;;;;;;;;;;24.80;41.30;;;;;;5001090;28;20532;-67
2022/07/17 12:36:29;;;;;;;;;;;24.80;41.40;;;;;;4997681;28;20277;-66
2022/07/17 12:38:55;;;;;;;;;;;24.80;41.40;;;;;;4997754;28;19913;-61
2022/07/17 12:41:21;;;;;;;;;;;24.80;41.40;;;;;;5000061;28;20062;-68
2022/07/17 12:43:46;;;;;;;;;;;24.80;41.40;;;;;;4999980;28;19966;-62
2022/07/17 12:46:12;;;;;;;;;;;24.80;41.40;;;;;;4998991;28;19997;-64
2022/07/17 12:48:39;;;;;;;;;;;24.80;41.40;;;;;;4996460;28;20010;-64
2022/07/17 12:51:06;;;;;;;;;;;24.80;41.40;;;;;;4999145;28;20035;-63
2022/07/17 12:53:31;;;;;;;;;;;24.80;41.50;;;;;;4998086;28;20008;-66
2022/07/17 12:55:57;;;;;;;;;;;24.80;41.50;;;;;;4997913;28;20099;-63
2022/07/17 12:58:22;;;;;;;;;;;24.80;41.50;;;;;;4998774;28;19917;-64
2022/07/17 13:00:48;;;;;;;;;;;24.80;41.50;;;;;;4995816;28;19973;-66
2022/07/17 13:03:13;;;;;;;;;;;24.90;41.70;;;;;;5000713;28;19913;-66
2022/07/17 13:05:38;;;;;;;;;;;25.00;41.90;;;;;;5000454;28;20371;-66
2022/07/17 13:08:04;;;;;;;;;;;25.10;41.90;;;;;;4998548;28;19913;-63
2022/07/17 13:10:30;;;;;;;;;;;25.10;41.80;;;;;;5000183;28;20467;-65
2022/07/17 13:12:55;;;;;;;;;;;25.20;41.90;;;;;;4998903;28;19962;-63
2022/07/17 13:15:21;;;;;;;;;;;25.20;41.60;;;;;;5001308;28;19913;-67
2022/07/17 13:17:46;;;;;;;;;;;25.30;41.70;;;;;;4997046;28;20275;-65
2022/07/17 13:20:13;;;;;;;;;;;25.40;41.60;;;;;;4996739;28;19971;-66
2022/07/17 13:22:38;;;;;;;;;;;25.40;41.60;;;;;;4998231;28;19917;-66
2022/07/17 13:25:04;;;;;;;;;;;25.40;41.50;;;;;;4996007;28;20310;-65
2022/07/17 13:27:29;;;;;;;;;;;25.40;41.90;;;;;;4995434;28;19960;-63
2022/07/17 13:29:55;;;;;;;;;;;25.50;41.50;;;;;;4999298;28;19967;-65
2022/07/17 13:32:21;;;;;;;;;;;25.60;41.50;;;;;;4999486;28;19940;-65
2022/07/17 13:34:46;;;;;;;;;;;25.60;41.30;;;;;;5001174;28;19917;-65
2022/07/17 13:37:12;;;;;;;;;;;25.60;41.30;;;;;;4999166;28;19923;-63
2022/07/17 13:39:37;;;;;;;;;;;25.70;41.30;;;;;;4999660;28;19917;-65
2022/07/17 13:42:03;;;;;;;;;;;25.70;41.40;;;;;;4993556;28;20502;-69
2022/07/17 13:44:28;;;;;;;;;;;25.70;41.30;;;;;;4997022;28;19975;-66
2022/07/17 13:46:54;;;;;;;;;;;25.80;41.30;;;;;;5000712;28;20549;-63
2022/07/17 13:49:20;;;;;;;;;;;25.80;41.10;;;;;;4997408;28;20368;-64
2022/07/17 13:51:45;;;;;;;;;;;25.80;41.20;;;;;;4999211;28;19913;-67
2022/07/17 13:54:11;;;;;;;;;;;25.90;41.20;;;;;;4996301;28;19924;-64
2022/07/17 13:56:36;;;;;;;;;;;25.90;41.10;;;;;;4994769;28;19986;-65
2022/07/17 13:59:02;;;;;;;;;;;25.90;41.00;;;;;;4998197;28;19924;-64
2022/07/17 14:01:27;;;;;;;;;;;26.00;41.10;;;;;;4994383;28;20482;-66
2022/07/17 14:03:53;;;;;;;;;;;26.00;41.00;;;;;;5000605;28;20020;-63
2022/07/17 14:06:19;;;;;;;;;;;26.00;40.90;;;;;;4992458;28;19917;-64
2022/07/17 14:08:45;;;;;;;;;;;26.10;40.90;;;;;;4998180;28;20618;-62